createdAt,value
2022-09-12T00:02:04.602Z,17.60
2022-09-12T00:04:32.722Z,17.60
2022-09-12T00:07:00.620Z,17.60
2022-09-12T00:09:28.651Z,17.50
2022-09-12T00:11:57.459Z,17.50
2022-09-12T00:14:25.395Z,17.50
2022-09-12T00:16:53.512Z,17.50
2022-09-12T00:19:21.497Z,17.50
2022-09-12T00:21:49.585Z,17.40
2022-09-12T00:24:17.557Z,17.40
2022-09-12T00:26:48.718Z,17.40
2022-09-12T00:29:22.469Z,17.40
2022-09-12T00:31:52.753Z,17.30
2022-09-12T00:34:20.866Z,17.30
2022-09-12T00:36:48.937Z,17.30
2022-09-12T00:39:20.184Z,17.30
2022-09-12T00:41:48.134Z,17.30
2022-09-12T00:44:19.156Z,17.30
2022-09-12T00:46:50.101Z,17.30
2022-09-12T00:49:18.106Z,17.20
2022-09-12T00:51:55.815Z,17.20
2022-09-12T00:54:27.402Z,17.20
2022-09-12T00:56:59.310Z,17.10
2022-09-12T00:59:35.864Z,17.00
2022-09-12T01:02:04.276Z,17.00
2022-09-12T01:04:32.823Z,17.00
2022-09-12T01:07:00.941Z,16.90
2022-09-12T01:09:28.855Z,16.90
2022-09-12T01:11:57.423Z,16.90
2022-09-12T01:14:25.373Z,16.80
2022-09-12T01:16:53.531Z,16.80
2022-09-12T01:19:21.763Z,16.70
2022-09-12T01:22:10.535Z,16.70
2022-09-12T01:24:57.238Z,16.70
2022-09-12T01:27:34.402Z,16.80
2022-09-12T01:30:02.433Z,16.70
2022-09-12T01:32:56.807Z,16.70
2022-09-12T01:35:37.708Z,16.70
2022-09-12T01:38:15.257Z,16.70
2022-09-12T01:40:51.099Z,16.60
2022-09-12T01:43:32.184Z,16.60
2022-09-12T01:46:00.746Z,16.60
2022-09-12T01:48:31.592Z,16.60
2022-09-12T01:51:05.173Z,16.60
2022-09-12T01:53:44.755Z,16.60
2022-09-12T01:56:15.537Z,16.60
2022-09-12T01:58:45.980Z,16.60
2022-09-12T02:01:20.796Z,16.60
2022-09-12T02:04:09.656Z,16.50
2022-09-12T02:06:43.453Z,16.50
2022-09-12T02:09:13.775Z,16.40
2022-09-12T02:11:43.860Z,16.40
2022-09-12T02:14:17.919Z,16.30
2022-09-12T02:16:54.907Z,16.30
2022-09-12T02:19:24.500Z,16.20
2022-09-12T02:21:56.879Z,16.20
2022-09-12T02:24:26.445Z,16.10
2022-09-12T02:26:56.669Z,16.10
2022-09-12T02:29:24.809Z,16.10
2022-09-12T02:31:56.309Z,16.00
2022-09-12T02:34:33.481Z,16.00
2022-09-12T02:37:10.669Z,16.10
2022-09-12T02:39:42.104Z,16.10
2022-09-12T02:42:13.409Z,16.10
2022-09-12T02:44:42.042Z,16.10
2022-09-12T02:47:23.721Z,16.10
2022-09-12T02:49:52.913Z,16.10
2022-09-12T02:52:21.017Z,16.10
2022-09-12T02:54:49.523Z,16.10
2022-09-12T02:57:22.611Z,16.10
2022-09-12T03:06:54.827Z,16.10
2022-09-12T03:09:35.225Z,16.10
2022-09-12T03:12:09.059Z,16.10
2022-09-12T03:14:43.104Z,16.10
2022-09-12T03:17:29.873Z,16.10
2022-09-12T03:20:03.650Z,16.10
2022-09-12T03:22:43.230Z,16.10
2022-09-12T03:25:17.965Z,16.10
2022-09-12T03:27:51.658Z,16.10
2022-09-12T03:30:19.900Z,16.00
2022-09-12T03:32:52.451Z,16.00
2022-09-12T03:35:24.083Z,15.90
2022-09-12T03:37:53.713Z,15.80
2022-09-12T03:40:21.703Z,15.80
2022-09-12T03:42:50.408Z,15.70
2022-09-12T03:45:18.430Z,15.70
2022-09-12T03:47:46.420Z,15.70
2022-09-12T03:50:14.360Z,15.70
2022-09-12T03:52:45.073Z,15.60
2022-09-12T03:55:15.559Z,15.60
2022-09-12T03:57:43.812Z,15.60
2022-09-12T04:00:16.371Z,15.50
2022-09-12T04:02:48.980Z,15.50
2022-09-12T04:05:16.927Z,15.50
2022-09-12T04:07:47.319Z,15.50
2022-09-12T04:10:16.281Z,15.50
2022-09-12T04:12:44.514Z,15.50
2022-09-12T04:15:14.940Z,15.60
2022-09-12T04:17:42.972Z,15.60
2022-09-12T04:20:13.846Z,15.60
2022-09-12T04:22:42.041Z,15.60
2022-09-12T04:25:10.109Z,15.60
2022-09-12T04:27:38.313Z,15.60
2022-09-12T04:30:09.312Z,15.60
2022-09-12T04:32:42.619Z,15.60
2022-09-12T04:35:12.625Z,15.60
2022-09-12T04:37:44.596Z,15.60
2022-09-12T04:40:15.364Z,15.60
2022-09-12T04:42:43.674Z,15.60
2022-09-12T04:45:14.170Z,15.60
2022-09-12T04:47:44.694Z,15.60
2022-09-12T04:50:12.857Z,15.50
2022-09-12T04:52:43.840Z,15.60
2022-09-12T04:55:11.709Z,15.60
2022-09-12T04:57:39.664Z,15.60
2022-09-12T05:00:07.979Z,15.60
2022-09-12T05:02:36.150Z,15.60
2022-09-12T05:05:06.766Z,15.60
2022-09-12T05:07:38.167Z,15.60
2022-09-12T05:10:10.365Z,15.60
2022-09-12T05:12:40.083Z,15.70
2022-09-12T05:15:08.962Z,15.70
2022-09-12T05:17:38.214Z,15.80
2022-09-12T05:20:10.029Z,16.00
2022-09-12T05:22:38.020Z,16.10
2022-09-12T05:25:06.576Z,16.20
2022-09-12T05:27:35.507Z,16.30
2022-09-12T05:30:06.980Z,16.40
2022-09-12T05:32:40.413Z,16.50
2022-09-12T05:35:11.524Z,16.60
2022-09-12T05:37:41.096Z,16.80
2022-09-12T05:40:13.908Z,16.90
2022-09-12T05:42:41.941Z,17.00
2022-09-12T05:45:10.424Z,17.30
2022-09-12T05:47:38.357Z,17.40
2022-09-12T05:50:12.704Z,17.50
2022-09-12T05:52:40.910Z,17.70
2022-09-12T05:55:09.179Z,17.90
2022-09-12T05:57:37.276Z,18.10
2022-09-12T06:00:06.384Z,18.40
2022-09-12T06:02:39.822Z,18.60
2022-09-12T06:05:10.281Z,18.90
2022-09-12T06:07:41.493Z,19.30
2022-09-12T06:10:10.443Z,19.90
2022-09-12T06:12:40.845Z,20.60
2022-09-12T06:15:15.079Z,21.30
2022-09-12T06:17:43.434Z,21.60
2022-09-12T06:20:16.998Z,21.70
2022-09-12T06:22:44.939Z,21.90
2022-09-12T06:25:15.543Z,22.20
2022-09-12T06:27:43.638Z,22.80
2022-09-12T06:30:14.656Z,23.10
2022-09-12T06:32:42.614Z,23.40
2022-09-12T06:35:10.675Z,23.00
2022-09-12T06:37:42.043Z,22.30
2022-09-12T06:40:13.066Z,22.10
2022-09-12T06:42:43.534Z,22.90
2022-09-12T06:45:12.203Z,23.80
2022-09-12T06:47:40.173Z,24.70
2022-09-12T06:50:10.124Z,24.80
2022-09-12T06:52:41.089Z,25.00
2022-09-12T06:55:11.354Z,24.70
2022-09-12T06:57:42.657Z,25.20
2022-09-12T07:00:11.407Z,25.00
2022-09-12T07:02:42.145Z,25.70
2022-09-12T07:05:15.501Z,25.10
2022-09-12T07:07:49.229Z,25.30
2022-09-12T07:10:22.301Z,25.60
2022-09-12T07:12:51.688Z,26.60
2022-09-12T07:15:46.338Z,27.30
2022-09-12T07:18:14.588Z,28.00
2022-09-12T07:20:43.148Z,28.40
2022-09-12T07:23:13.455Z,28.60
2022-09-12T07:25:41.624Z,29.00
2022-09-12T07:28:09.541Z,29.50
2022-09-12T07:30:40.177Z,29.80
2022-09-12T07:33:08.220Z,30.20
2022-09-12T07:35:36.251Z,30.80
2022-09-12T07:38:04.457Z,31.30
2022-09-12T07:40:34.924Z,30.40
2022-09-12T07:43:06.424Z,29.40
2022-09-12T07:45:39.719Z,28.90
2022-09-12T07:48:08.293Z,28.00
2022-09-12T07:50:38.071Z,26.90
2022-09-12T07:53:09.098Z,25.90
2022-09-12T07:55:37.183Z,25.10
2022-09-12T07:58:05.233Z,26.60
2022-09-12T08:00:36.256Z,27.50
2022-09-12T08:03:07.626Z,29.10
2022-09-12T08:05:41.734Z,30.60
2022-09-12T08:08:12.604Z,31.80
2022-09-12T08:10:40.875Z,33.00
2022-09-12T08:13:10.809Z,32.30
2022-09-12T08:15:39.486Z,31.10
2022-09-12T08:18:10.244Z,29.70
2022-09-12T08:20:38.299Z,28.60
2022-09-12T08:23:09.022Z,30.20
2022-09-12T08:25:41.931Z,30.70
2022-09-12T08:28:10.039Z,31.80
2022-09-12T08:30:38.422Z,32.80
2022-09-12T08:33:07.268Z,34.10
2022-09-12T08:35:36.306Z,34.90
2022-09-12T08:38:04.375Z,35.80
2022-09-12T08:40:34.422Z,36.50
2022-09-12T08:43:21.387Z,35.90
2022-09-12T08:45:54.800Z,33.90
2022-09-12T08:48:28.224Z,31.60
2022-09-12T08:50:59.489Z,30.00
2022-09-12T08:53:28.482Z,28.70
2022-09-12T08:55:59.193Z,27.90
2022-09-12T08:58:30.012Z,27.30
2022-09-12T09:01:17.013Z,28.70
2022-09-12T09:03:48.339Z,31.40
2022-09-12T09:06:22.294Z,32.70
2022-09-12T09:09:05.598Z,32.10
2022-09-12T09:11:48.865Z,32.20
2022-09-12T09:14:50.498Z,34.20
2022-09-12T09:17:38.843Z,34.80
2022-09-12T09:20:23.023Z,33.60
2022-09-12T09:23:09.962Z,31.80
2022-09-12T09:25:37.979Z,30.00
2022-09-12T09:28:08.176Z,28.60
2022-09-12T09:30:42.017Z,27.80
2022-09-12T09:33:21.153Z,27.50
2022-09-12T09:35:55.464Z,27.70
2022-09-12T09:38:55.905Z,28.50
2022-09-12T09:41:28.383Z,29.10
2022-09-12T09:43:57.520Z,28.70
2022-09-12T09:46:26.413Z,28.50
2022-09-12T09:48:55.656Z,28.80
2022-09-12T09:51:30.710Z,29.30
2022-09-12T09:54:11.111Z,30.50
2022-09-12T09:56:43.041Z,33.00
2022-09-12T09:59:12.455Z,35.50
2022-09-12T10:01:57.839Z,37.30
2022-09-12T10:04:28.352Z,37.60
2022-09-12T10:07:01.316Z,36.40
2022-09-12T10:09:31.374Z,34.40
2022-09-12T10:12:00.131Z,32.60
2022-09-12T10:14:31.007Z,31.00
2022-09-12T10:16:59.952Z,30.00
2022-09-12T10:19:35.917Z,30.50
2022-09-12T10:22:05.549Z,32.50
2022-09-12T10:24:39.700Z,33.60
2022-09-12T10:27:10.549Z,33.70
2022-09-12T10:29:46.357Z,34.60
2022-09-12T10:32:21.332Z,36.20
2022-09-12T10:34:55.952Z,37.40
2022-09-12T10:37:26.819Z,37.90
2022-09-12T10:40:01.093Z,38.60
2022-09-12T10:42:42.836Z,38.50
2022-09-12T10:45:25.884Z,38.50
2022-09-12T10:47:55.022Z,37.30
2022-09-12T10:50:42.077Z,36.30
2022-09-12T10:53:21.444Z,36.10
2022-09-12T10:55:55.629Z,36.60
2022-09-12T10:58:23.553Z,35.60
2022-09-12T11:00:54.616Z,34.40
2022-09-12T11:03:46.100Z,33.20
2022-09-12T11:06:21.433Z,32.30
2022-09-12T11:09:09.555Z,31.80
2022-09-12T11:11:56.947Z,32.00
2022-09-12T11:14:30.215Z,33.40
2022-09-12T11:17:10.626Z,33.20
2022-09-12T11:19:59.001Z,32.50
2022-09-12T11:22:45.749Z,31.60
2022-09-12T11:25:20.441Z,30.90
2022-09-12T11:27:59.089Z,30.20
2022-09-12T11:30:28.358Z,29.90
2022-09-12T11:32:56.367Z,29.60
2022-09-12T11:35:33.595Z,30.20
2022-09-12T11:38:01.627Z,30.20
2022-09-12T11:40:35.009Z,30.10
2022-09-12T11:43:10.682Z,30.00
2022-09-12T11:45:45.615Z,30.30
2022-09-12T11:48:20.312Z,31.70
2022-09-12T11:50:48.481Z,33.20
2022-09-12T11:53:22.366Z,33.10
2022-09-12T11:56:09.758Z,32.50
2022-09-12T11:58:43.547Z,31.90
2022-09-12T12:01:14.326Z,31.40
2022-09-12T12:03:44.764Z,32.00
2022-09-12T12:06:17.490Z,33.10
2022-09-12T12:08:51.326Z,33.60
2022-09-12T12:11:30.631Z,33.50
2022-09-12T12:14:01.712Z,34.10
2022-09-12T12:16:33.513Z,34.80
2022-09-12T12:19:05.509Z,35.30
2022-09-12T12:21:41.015Z,35.90
2022-09-12T12:24:11.380Z,36.00
2022-09-12T12:26:42.526Z,35.50
2022-09-12T12:29:13.837Z,34.60
2022-09-12T12:32:02.414Z,33.60
2022-09-12T12:34:39.093Z,32.70
2022-09-12T12:37:19.389Z,32.40
2022-09-12T12:39:51.308Z,33.00
2022-09-12T12:42:32.534Z,32.80
2022-09-12T12:45:04.594Z,32.50
2022-09-12T12:47:43.016Z,32.00
2022-09-12T12:50:11.568Z,31.60
2022-09-12T12:52:51.865Z,31.80
2022-09-12T12:55:31.723Z,32.90
2022-09-12T12:58:02.958Z,34.00
2022-09-12T13:00:35.775Z,34.90
2022-09-12T13:03:09.900Z,35.00
2022-09-12T13:05:48.287Z,35.20
2022-09-12T13:08:22.407Z,35.00
2022-09-12T13:10:55.522Z,35.10
2022-09-12T13:13:45.855Z,35.60
2022-09-12T13:16:29.231Z,34.90
2022-09-12T13:19:00.112Z,34.00
2022-09-12T13:21:30.905Z,33.90
2022-09-12T13:24:01.110Z,34.20
2022-09-12T13:26:35.490Z,33.80
2022-09-12T13:29:13.125Z,33.40
2022-09-12T13:31:47.441Z,33.70
2022-09-12T13:34:23.966Z,34.30
2022-09-12T13:36:56.219Z,34.70
2022-09-12T13:39:24.958Z,34.80
2022-09-12T13:42:07.779Z,34.90
2022-09-12T13:44:43.197Z,34.10
2022-09-12T13:47:14.052Z,32.90
2022-09-12T13:49:46.202Z,32.00
2022-09-12T13:52:25.025Z,31.60
2022-09-12T13:54:54.528Z,31.20
2022-09-12T13:57:39.091Z,30.90
2022-09-12T14:00:10.102Z,30.60
2022-09-12T14:02:40.737Z,30.40
2022-09-12T14:05:17.004Z,30.00
2022-09-12T14:08:04.428Z,29.80
2022-09-12T14:10:36.665Z,29.60
2022-09-12T14:13:12.667Z,29.30
2022-09-12T14:15:44.643Z,29.10
2022-09-12T14:18:22.438Z,28.90
2022-09-12T14:20:53.340Z,28.70
2022-09-12T14:23:41.858Z,28.70
2022-09-12T14:26:13.889Z,28.60
2022-09-12T14:28:48.506Z,28.70
2022-09-12T14:31:17.170Z,29.20
2022-09-12T14:33:52.097Z,29.20
2022-09-12T14:36:34.724Z,28.80
2022-09-12T14:39:07.068Z,28.40
2022-09-12T14:41:37.168Z,27.90
2022-09-12T14:44:08.688Z,27.60
2022-09-12T14:46:41.100Z,27.40
2022-09-12T14:49:28.040Z,27.40
2022-09-12T14:52:03.058Z,27.50
2022-09-12T14:54:31.546Z,27.60
2022-09-12T14:57:02.048Z,27.40
2022-09-12T14:59:31.146Z,27.40
2022-09-12T15:02:14.591Z,27.10
2022-09-12T15:04:43.846Z,26.90
2022-09-12T15:07:18.663Z,26.60
2022-09-12T15:09:47.486Z,26.50
2022-09-12T15:12:15.866Z,26.30
2022-09-12T15:14:44.894Z,26.10
2022-09-12T15:17:12.860Z,26.10
2022-09-12T15:19:43.840Z,26.10
2022-09-12T15:22:14.983Z,25.90
2022-09-12T15:24:43.122Z,25.80
2022-09-12T15:27:14.053Z,25.60
2022-09-12T15:29:42.122Z,25.40
2022-09-12T15:32:15.549Z,25.30
2022-09-12T15:34:46.726Z,25.10
2022-09-12T15:37:14.814Z,24.90
2022-09-12T15:39:42.836Z,24.80
2022-09-12T15:42:15.964Z,24.60
2022-09-12T15:44:43.942Z,24.50
2022-09-12T15:47:14.885Z,24.50
2022-09-12T15:49:44.001Z,24.40
2022-09-12T15:52:15.919Z,24.30
2022-09-12T15:54:44.215Z,24.30
2022-09-12T15:57:13.238Z,24.20
2022-09-12T15:59:41.758Z,24.40
2022-09-12T16:02:15.078Z,24.30
2022-09-12T16:04:42.999Z,24.40
2022-09-12T16:07:11.088Z,24.40
2022-09-12T16:09:42.405Z,24.30
2022-09-12T16:12:11.893Z,24.20
2022-09-12T16:14:39.942Z,24.10
2022-09-12T16:17:10.765Z,24.00
2022-09-12T16:19:44.346Z,23.90
2022-09-12T16:22:14.979Z,23.80
2022-09-12T16:24:43.140Z,23.70
2022-09-12T16:27:21.253Z,23.60
2022-09-12T16:29:49.233Z,23.50
2022-09-12T16:32:19.461Z,23.40
2022-09-12T16:34:51.219Z,23.30
2022-09-12T16:37:19.632Z,23.20
2022-09-12T16:39:49.207Z,23.10
2022-09-12T16:42:20.327Z,23.00
2022-09-12T16:44:48.233Z,22.90
2022-09-12T16:47:18.599Z,22.90
2022-09-12T16:49:51.780Z,22.80
2022-09-12T16:52:24.970Z,22.80
2022-09-12T16:54:52.951Z,22.70
2022-09-12T16:57:25.570Z,22.60
2022-09-12T16:59:55.775Z,22.60
2022-09-12T17:02:23.763Z,22.50
2022-09-12T17:04:54.752Z,22.40
2022-09-12T17:07:25.794Z,22.40
2022-09-12T17:09:53.804Z,22.30
2022-09-12T17:12:24.283Z,22.20
2022-09-12T17:14:52.285Z,22.20
2022-09-12T17:17:26.135Z,22.10
2022-09-12T17:19:54.342Z,22.10
2022-09-12T17:22:25.054Z,22.00
2022-09-12T17:24:56.290Z,21.90
2022-09-12T17:27:26.981Z,21.90
2022-09-12T17:29:55.043Z,21.80
2022-09-12T17:32:25.997Z,21.80
2022-09-12T17:34:58.259Z,21.80
2022-09-12T17:37:26.207Z,21.70
2022-09-12T17:39:58.192Z,21.70
2022-09-12T17:42:28.963Z,21.60
2022-09-12T17:44:58.741Z,21.50
2022-09-12T17:47:29.118Z,21.40
2022-09-12T17:50:14.499Z,21.30
2022-09-12T17:52:52.470Z,21.20
2022-09-12T17:55:21.281Z,21.10
2022-09-12T17:57:49.861Z,21.00
2022-09-12T18:00:17.906Z,20.90
2022-09-12T18:02:51.337Z,20.80
2022-09-12T18:05:19.465Z,20.70
2022-09-12T18:07:47.354Z,20.60
2022-09-12T18:10:15.398Z,20.50
2022-09-12T18:12:47.248Z,20.40
2022-09-12T18:15:17.715Z,20.30
2022-09-12T18:17:46.099Z,20.20
2022-09-12T18:20:14.269Z,20.10
2022-09-12T18:22:44.702Z,20.00
2022-09-12T18:25:18.237Z,19.90
2022-09-12T18:27:48.579Z,19.80
2022-09-12T18:30:23.797Z,19.70
2022-09-12T18:32:57.275Z,19.70
2022-09-12T18:35:28.922Z,19.60
2022-09-12T18:37:56.879Z,19.50
2022-09-12T18:40:26.140Z,19.50
2022-09-12T18:42:56.595Z,19.40
2022-09-12T18:45:29.973Z,19.30
2022-09-12T18:47:58.345Z,19.20
2022-09-12T18:50:29.198Z,19.20
2022-09-12T18:52:59.980Z,19.20
2022-09-12T18:55:30.971Z,19.10
2022-09-12T18:57:59.146Z,19.10
2022-09-12T19:00:27.353Z,19.10
2022-09-12T19:02:55.355Z,19.10
2022-09-12T19:05:23.992Z,19.20
2022-09-12T19:07:51.894Z,19.10
2022-09-12T19:10:20.043Z,19.10
2022-09-12T19:12:51.103Z,19.10
2022-09-12T19:15:23.819Z,19.10
2022-09-12T19:17:52.451Z,19.00
2022-09-12T19:20:27.031Z,18.90
2022-09-12T19:22:56.139Z,18.80
2022-09-12T19:25:24.156Z,18.80
2022-09-12T19:27:55.561Z,18.80
2022-09-12T19:30:24.080Z,18.80
2022-09-12T19:32:52.185Z,18.70
2022-09-12T19:35:23.979Z,18.60
2022-09-12T19:37:52.139Z,18.50
2022-09-12T19:40:22.405Z,18.50
2022-09-12T19:42:54.199Z,18.40
2022-09-12T19:45:25.376Z,18.30
2022-09-12T19:47:53.504Z,18.20
2022-09-12T19:50:21.501Z,18.10
2022-09-12T19:52:52.242Z,18.10
2022-09-12T19:55:22.792Z,18.00
2022-09-12T19:57:53.997Z,18.00
2022-09-12T20:00:25.061Z,18.00
2022-09-12T20:02:53.694Z,17.90
2022-09-12T20:05:21.599Z,17.80
2022-09-12T20:07:49.663Z,17.80
2022-09-12T20:10:21.443Z,17.80
2022-09-12T20:12:49.492Z,17.70
2022-09-12T20:15:17.583Z,17.70
2022-09-12T20:17:46.250Z,17.60
2022-09-12T20:20:16.503Z,17.60
2022-09-12T20:22:44.593Z,17.50
2022-09-12T20:25:13.433Z,17.50
2022-09-12T20:27:49.053Z,17.40
2022-09-12T20:30:17.439Z,17.40
2022-09-12T20:32:45.523Z,17.30
2022-09-12T20:35:15.222Z,17.20
2022-09-12T20:37:44.064Z,17.20
2022-09-12T20:40:12.220Z,17.10
2022-09-12T20:42:40.338Z,17.00
2022-09-12T20:45:08.438Z,17.00
2022-09-12T20:47:36.856Z,16.90
2022-09-12T20:50:07.375Z,16.90
2022-09-12T20:52:38.460Z,16.80
2022-09-12T20:55:06.788Z,16.80
2022-09-12T20:57:34.829Z,16.80
2022-09-12T21:00:03.073Z,16.70
2022-09-12T21:02:37.221Z,16.60
2022-09-12T21:05:08.022Z,16.60
2022-09-12T21:07:39.124Z,16.60
2022-09-12T21:10:11.060Z,16.50
2022-09-12T21:12:39.157Z,16.50
2022-09-12T21:15:10.470Z,16.40
2022-09-12T21:17:39.270Z,16.30
2022-09-12T21:20:11.419Z,16.30
2022-09-12T21:22:42.737Z,16.30
2022-09-12T21:25:13.033Z,16.20
2022-09-12T21:27:43.977Z,16.20
2022-09-12T21:30:18.403Z,16.10
2022-09-12T21:32:47.719Z,16.10
2022-09-12T21:35:19.142Z,16.10
2022-09-12T21:37:54.487Z,16.00
2022-09-12T21:40:22.446Z,16.00
2022-09-12T21:42:50.831Z,15.90
2022-09-12T21:45:19.056Z,15.90
2022-09-12T21:47:47.154Z,15.90
2022-09-12T21:50:18.061Z,15.90
2022-09-12T21:52:49.505Z,15.90
2022-09-12T21:55:17.874Z,15.90
2022-09-12T21:57:53.609Z,15.80
2022-09-12T22:00:22.421Z,15.80
2022-09-12T22:02:55.753Z,15.80
2022-09-12T22:05:27.552Z,15.80
2022-09-12T22:07:57.113Z,15.80
2022-09-12T22:10:30.984Z,15.80
2022-09-12T22:12:58.957Z,15.70
2022-09-12T22:15:40.437Z,15.70
2022-09-12T22:18:12.509Z,15.80
2022-09-12T22:20:40.526Z,15.80
2022-09-12T22:23:36.363Z,15.80
2022-09-12T22:26:07.645Z,15.80
2022-09-12T22:28:36.839Z,15.70
2022-09-12T22:31:07.100Z,15.70
2022-09-12T22:33:38.374Z,15.70
2022-09-12T22:36:06.741Z,15.70
2022-09-12T22:38:34.865Z,15.70
2022-09-12T22:41:04.046Z,15.70
2022-09-12T22:43:36.214Z,15.60
2022-09-12T22:46:09.598Z,15.70
2022-09-12T22:48:44.121Z,15.60
2022-09-12T22:51:18.142Z,15.60
2022-09-12T22:53:52.030Z,15.60
2022-09-12T22:56:20.342Z,15.60
2022-09-12T22:58:48.777Z,15.50
2022-09-12T23:01:17.442Z,15.50
2022-09-12T23:03:46.502Z,15.50
2022-09-12T23:06:14.732Z,15.50
2022-09-12T23:08:45.394Z,15.40
2022-09-12T23:11:18.858Z,15.40
2022-09-12T23:13:53.574Z,15.40
2022-09-12T23:16:25.473Z,15.30
2022-09-12T23:18:56.941Z,15.20
2022-09-12T23:21:31.221Z,15.20
2022-09-12T23:23:59.345Z,15.10
2022-09-12T23:26:34.062Z,15.10
2022-09-12T23:29:08.575Z,15.00
2022-09-12T23:31:39.631Z,15.00
2022-09-12T23:34:13.223Z,14.90
2022-09-12T23:36:46.483Z,14.90
2022-09-12T23:39:17.501Z,14.80
2022-09-12T23:41:46.403Z,14.80
2022-09-12T23:44:16.585Z,14.70
2022-09-12T23:46:49.439Z,14.70
2022-09-12T23:49:21.237Z,14.70
2022-09-12T23:51:49.427Z,14.70
2022-09-12T23:54:17.639Z,14.60
2022-09-12T23:56:46.370Z,14.60
2022-09-12T23:59:17.159Z,14.50
